sensor_id;sensor_type;location;lat;lon;timestamp;temperature;humidity
42907;DHT22;28552;51.146;6.576;2022-12-18T00:01:35;-5.30;99.90
42907;DHT22;28552;51.146;6.576;2022-12-18T00:04:36;-5.40;99.90
42907;DHT22;28552;51.146;6.576;2022-12-18T00:07:37;-5.50;99.90
42907;DHT22;28552;51.146;6.576;2022-12-18T00:10:38;-5.60;99.90
42907;DHT22;28552;51.146;6.576;2022-12-18T00:13:38;-5.60;99.90
42907;DHT22;28552;51.146;6.576;2022-12-18T00:16:40;-5.70;99.90
42907;DHT22;28552;51.146;6.576;2022-12-18T00:19:43;-5.70;99.90
42907;DHT22;28552;51.146;6.576;2022-12-18T00:22:43;-5.70;99.90
42907;DHT22;28552;51.146;6.576;2022-12-18T00:25:44;-5.70;99.90
42907;DHT22;28552;51.146;6.576;2022-12-18T00:28:44;-5.70;99.90
42907;DHT22;28552;51.146;6.576;2022-12-18T00:31:45;-5.70;99.90
42907;DHT22;28552;51.146;6.576;2022-12-18T00:34:46;-5.70;99.90
42907;DHT22;28552;51.146;6.576;2022-12-18T00:37:46;-5.70;99.90
42907;DHT22;28552;51.146;6.576;2022-12-18T00:40:47;-5.70;99.90
42907;DHT22;28552;51.146;6.576;2022-12-18T00:43:47;-5.70;99.90
42907;DHT22;28552;51.146;6.576;2022-12-18T00:46:48;-5.60;99.90
42907;DHT22;28552;51.146;6.576;2022-12-18T00:49:48;-5.60;99.90
42907;DHT22;28552;51.146;6.576;2022-12-18T00:52:49;-5.60;99.90
42907;DHT22;28552;51.146;6.576;2022-12-18T00:55:50;-5.60;99.90
42907;DHT22;28552;51.146;6.576;2022-12-18T00:58:50;-5.60;99.90
42907;DHT22;28552;51.146;6.576;2022-12-18T01:01:51;-5.60;99.90
42907;DHT22;28552;51.146;6.576;2022-12-18T01:04:51;-5.60;99.90
42907;DHT22;28552;51.146;6.576;2022-12-18T01:07:52;-5.60;99.90
42907;DHT22;28552;51.146;6.576;2022-12-18T01:10:52;-5.60;99.90
42907;DHT22;28552;51.146;6.576;2022-12-18T01:13:54;-5.60;99.90
42907;DHT22;28552;51.146;6.576;2022-12-18T01:16:55;-5.60;99.90
42907;DHT22;28552;51.146;6.576;2022-12-18T01:19:55;-5.60;99.90
42907;DHT22;28552;51.146;6.576;2022-12-18T01:22:56;-5.60;99.90
42907;DHT22;28552;51.146;6.576;2022-12-18T01:25:56;-5.60;99.90
42907;DHT22;28552;51.146;6.576;2022-12-18T01:28:58;-5.70;99.90
42907;DHT22;28552;51.146;6.576;2022-12-18T01:31:59;-5.70;99.90
42907;DHT22;28552;51.146;6.576;2022-12-18T01:34:59;-5.70;99.90
42907;DHT22;28552;51.146;6.576;2022-12-18T01:38:00;-5.70;99.90
42907;DHT22;28552;51.146;6.576;2022-12-18T01:41:01;-5.60;99.90
42907;DHT22;28552;51.146;6.576;2022-12-18T01:47:45;-5.60;99.90
42907;DHT22;28552;51.146;6.576;2022-12-18T01:50:46;-5.60;99.90
42907;DHT22;28552;51.146;6.576;2022-12-18T01:53:47;-5.60;99.90
42907;DHT22;28552;51.146;6.576;2022-12-18T01:56:48;-5.60;99.90
42907;DHT22;28552;51.146;6.576;2022-12-18T01:59:52;-5.50;99.90
42907;DHT22;28552;51.146;6.576;2022-12-18T02:02:53;-5.50;99.90
42907;DHT22;28552;51.146;6.576;2022-12-18T02:06:28;-5.50;99.90
42907;DHT22;28552;51.146;6.576;2022-12-18T02:09:20;-5.50;99.90
42907;DHT22;28552;51.146;6.576;2022-12-18T02:12:27;-5.50;99.90
42907;DHT22;28552;51.146;6.576;2022-12-18T02:15:32;-5.50;99.90
42907;DHT22;28552;51.146;6.576;2022-12-18T02:18:40;-5.50;99.90
42907;DHT22;28552;51.146;6.576;2022-12-18T02:21:54;-5.50;99.90
42907;DHT22;28552;51.146;6.576;2022-12-18T02:28:16;-5.50;99.90
42907;DHT22;28552;51.146;6.576;2022-12-18T02:31:25;-5.50;99.90
42907;DHT22;28552;51.146;6.576;2022-12-18T02:34:30;-5.50;99.90
42907;DHT22;28552;51.146;6.576;2022-12-18T02:37:32;-5.60;99.90
42907;DHT22;28552;51.146;6.576;2022-12-18T02:40:34;-5.60;99.90
42907;DHT22;28552;51.146;6.576;2022-12-18T02:43:36;-5.60;99.90
42907;DHT22;28552;51.146;6.576;2022-12-18T02:46:41;-5.60;99.90
42907;DHT22;28552;51.146;6.576;2022-12-18T02:49:57;-5.60;99.90
42907;DHT22;28552;51.146;6.576;2022-12-18T02:56:20;-5.60;99.90
42907;DHT22;28552;51.146;6.576;2022-12-18T02:59:30;-5.60;99.90
42907;DHT22;28552;51.146;6.576;2022-12-18T03:05:45;-5.60;99.90
42907;DHT22;28552;51.146;6.576;2022-12-18T03:08:51;-5.60;99.90
42907;DHT22;28552;51.146;6.576;2022-12-18T03:11:56;-5.60;99.90
42907;DHT22;28552;51.146;6.576;2022-12-18T03:15:18;-5.60;99.90
42907;DHT22;28552;51.146;6.576;2022-12-18T03:18:24;-5.50;99.90
42907;DHT22;28552;51.146;6.576;2022-12-18T03:21:29;-5.60;99.90
42907;DHT22;28552;51.146;6.576;2022-12-18T03:24:32;-5.60;99.90
42907;DHT22;28552;51.146;6.576;2022-12-18T03:27:36;-5.60;99.90
42907;DHT22;28552;51.146;6.576;2022-12-18T03:30:39;-5.60;99.90
42907;DHT22;28552;51.146;6.576;2022-12-18T03:33:46;-5.70;99.90
42907;DHT22;28552;51.146;6.576;2022-12-18T03:36:47;-5.70;99.90
42907;DHT22;28552;51.146;6.576;2022-12-18T03:39:48;-5.70;99.90
42907;DHT22;28552;51.146;6.576;2022-12-18T03:42:58;-5.70;99.90
42907;DHT22;28552;51.146;6.576;2022-12-18T03:46:08;-5.70;99.90
42907;DHT22;28552;51.146;6.576;2022-12-18T03:49:18;-5.70;99.90
42907;DHT22;28552;51.146;6.576;2022-12-18T03:52:29;-5.70;99.90
42907;DHT22;28552;51.146;6.576;2022-12-18T03:55:32;-5.70;99.90
42907;DHT22;28552;51.146;6.576;2022-12-18T03:58:35;-5.70;99.90
42907;DHT22;28552;51.146;6.576;2022-12-18T04:01:40;-5.70;99.90
42907;DHT22;28552;51.146;6.576;2022-12-18T04:04:43;-5.70;99.90
42907;DHT22;28552;51.146;6.576;2022-12-18T04:07:47;-5.80;99.90
42907;DHT22;28552;51.146;6.576;2022-12-18T04:10:49;-5.80;99.90
42907;DHT22;28552;51.146;6.576;2022-12-18T04:13:49;-5.80;99.90
42907;DHT22;28552;51.146;6.576;2022-12-18T04:16:50;-5.90;99.90
42907;DHT22;28552;51.146;6.576;2022-12-18T04:19:50;-5.90;99.90
42907;DHT22;28552;51.146;6.576;2022-12-18T04:22:51;-5.90;99.90
42907;DHT22;28552;51.146;6.576;2022-12-18T04:25:52;-5.90;99.90
42907;DHT22;28552;51.146;6.576;2022-12-18T04:28:52;-5.90;99.90
42907;DHT22;28552;51.146;6.576;2022-12-18T04:31:53;-5.90;99.90
42907;DHT22;28552;51.146;6.576;2022-12-18T04:34:53;-5.90;99.90
42907;DHT22;28552;51.146;6.576;2022-12-18T04:37:53;-5.80;99.90
42907;DHT22;28552;51.146;6.576;2022-12-18T04:40:54;-5.80;99.90
42907;DHT22;28552;51.146;6.576;2022-12-18T04:43:55;-5.70;99.90
42907;DHT22;28552;51.146;6.576;2022-12-18T04:46:55;-5.70;99.90
42907;DHT22;28552;51.146;6.576;2022-12-18T04:49:56;-5.70;99.90
42907;DHT22;28552;51.146;6.576;2022-12-18T04:52:56;-5.70;99.90
42907;DHT22;28552;51.146;6.576;2022-12-18T04:56:07;-5.70;99.90
42907;DHT22;28552;51.146;6.576;2022-12-18T04:59:07;-5.70;99.90
42907;DHT22;28552;51.146;6.576;2022-12-18T05:02:08;-5.80;99.90
42907;DHT22;28552;51.146;6.576;2022-12-18T05:05:09;-5.80;99.90
42907;DHT22;28552;51.146;6.576;2022-12-18T05:08:10;-5.80;99.90
42907;DHT22;28552;51.146;6.576;2022-12-18T05:11:13;-5.80;99.90
42907;DHT22;28552;51.146;6.576;2022-12-18T05:14:15;-5.80;99.90
42907;DHT22;28552;51.146;6.576;2022-12-18T05:17:16;-5.80;99.90
42907;DHT22;28552;51.146;6.576;2022-12-18T05:20:18;-5.80;99.90
42907;DHT22;28552;51.146;6.576;2022-12-18T05:23:19;-5.80;99.90
42907;DHT22;28552;51.146;6.576;2022-12-18T05:26:20;-5.70;99.90
42907;DHT22;28552;51.146;6.576;2022-12-18T05:29:21;-5.80;99.90
42907;DHT22;28552;51.146;6.576;2022-12-18T05:32:21;-5.80;99.90
42907;DHT22;28552;51.146;6.576;2022-12-18T05:35:22;-5.80;99.90
42907;DHT22;28552;51.146;6.576;2022-12-18T05:38:24;-5.80;99.90
42907;DHT22;28552;51.146;6.576;2022-12-18T05:41:25;-5.90;99.90
42907;DHT22;28552;51.146;6.576;2022-12-18T05:44:26;-5.90;99.90
42907;DHT22;28552;51.146;6.576;2022-12-18T05:47:27;-6.00;99.90
42907;DHT22;28552;51.146;6.576;2022-12-18T05:50:28;-6.00;99.90
42907;DHT22;28552;51.146;6.576;2022-12-18T05:53:29;-6.00;99.90
42907;DHT22;28552;51.146;6.576;2022-12-18T05:56:30;-6.00;99.90
42907;DHT22;28552;51.146;6.576;2022-12-18T05:59:30;-6.00;99.90
42907;DHT22;28552;51.146;6.576;2022-12-18T06:02:31;-6.00;99.90
42907;DHT22;28552;51.146;6.576;2022-12-18T06:05:35;-6.00;99.90
42907;DHT22;28552;51.146;6.576;2022-12-18T06:08:37;-5.90;99.90
42907;DHT22;28552;51.146;6.576;2022-12-18T06:11:38;-5.90;99.90
42907;DHT22;28552;51.146;6.576;2022-12-18T06:14:39;-6.00;99.90
42907;DHT22;28552;51.146;6.576;2022-12-18T06:17:39;-6.00;99.90
42907;DHT22;28552;51.146;6.576;2022-12-18T06:20:40;-6.00;99.90
42907;DHT22;28552;51.146;6.576;2022-12-18T06:23:41;-6.00;99.90
42907;DHT22;28552;51.146;6.576;2022-12-18T06:26:42;-5.90;99.90
42907;DHT22;28552;51.146;6.576;2022-12-18T06:29:43;-5.90;99.90
42907;DHT22;28552;51.146;6.576;2022-12-18T06:32:56;-5.80;99.90
42907;DHT22;28552;51.146;6.576;2022-12-18T06:36:09;-5.80;99.90
42907;DHT22;28552;51.146;6.576;2022-12-18T06:39:10;-5.80;99.90
42907;DHT22;28552;51.146;6.576;2022-12-18T06:42:11;-5.80;99.90
42907;DHT22;28552;51.146;6.576;2022-12-18T06:45:11;-5.80;99.90
42907;DHT22;28552;51.146;6.576;2022-12-18T06:48:12;-5.80;99.90
42907;DHT22;28552;51.146;6.576;2022-12-18T06:51:16;-5.90;99.90
42907;DHT22;28552;51.146;6.576;2022-12-18T06:54:17;-5.90;99.90
42907;DHT22;28552;51.146;6.576;2022-12-18T06:57:17;-5.90;99.90
42907;DHT22;28552;51.146;6.576;2022-12-18T07:00:18;-5.80;99.90
42907;DHT22;28552;51.146;6.576;2022-12-18T07:03:18;-5.80;99.90
42907;DHT22;28552;51.146;6.576;2022-12-18T07:06:21;-5.80;99.90
42907;DHT22;28552;51.146;6.576;2022-12-18T07:09:21;-5.70;99.90
42907;DHT22;28552;51.146;6.576;2022-12-18T07:12:22;-5.60;99.90
42907;DHT22;28552;51.146;6.576;2022-12-18T07:15:22;-5.60;99.90
42907;DHT22;28552;51.146;6.576;2022-12-18T07:18:23;-5.50;99.90
42907;DHT22;28552;51.146;6.576;2022-12-18T07:21:24;-5.50;99.90
42907;DHT22;28552;51.146;6.576;2022-12-18T07:24:25;-5.40;99.90
42907;DHT22;28552;51.146;6.576;2022-12-18T07:27:26;-5.40;99.90
42907;DHT22;28552;51.146;6.576;2022-12-18T07:30:26;-5.40;99.90
42907;DHT22;28552;51.146;6.576;2022-12-18T07:33:27;-5.40;99.90
42907;DHT22;28552;51.146;6.576;2022-12-18T07:36:27;-5.30;99.90
42907;DHT22;28552;51.146;6.576;2022-12-18T07:39:28;-5.30;99.90
42907;DHT22;28552;51.146;6.576;2022-12-18T07:42:28;-5.20;99.90
42907;DHT22;28552;51.146;6.576;2022-12-18T07:45:32;-5.10;99.90
42907;DHT22;28552;51.146;6.576;2022-12-18T07:48:32;-5.10;99.90
42907;DHT22;28552;51.146;6.576;2022-12-18T07:51:33;-5.10;99.90
42907;DHT22;28552;51.146;6.576;2022-12-18T07:54:33;-5.10;99.90
42907;DHT22;28552;51.146;6.576;2022-12-18T07:57:34;-5.10;99.90
42907;DHT22;28552;51.146;6.576;2022-12-18T08:00:34;-5.00;99.90
42907;DHT22;28552;51.146;6.576;2022-12-18T08:03:36;-5.00;99.90
42907;DHT22;28552;51.146;6.576;2022-12-18T08:06:36;-5.00;99.90
42907;DHT22;28552;51.146;6.576;2022-12-18T08:09:37;-4.90;99.90
42907;DHT22;28552;51.146;6.576;2022-12-18T08:12:37;-4.80;99.90
42907;DHT22;28552;51.146;6.576;2022-12-18T08:15:38;-4.80;99.90
42907;DHT22;28552;51.146;6.576;2022-12-18T08:18:38;-4.70;99.90
42907;DHT22;28552;51.146;6.576;2022-12-18T08:21:39;-4.70;99.90
42907;DHT22;28552;51.146;6.576;2022-12-18T08:24:40;-4.60;99.90
42907;DHT22;28552;51.146;6.576;2022-12-18T08:27:40;-4.50;99.90
42907;DHT22;28552;51.146;6.576;2022-12-18T08:30:41;-4.50;99.90
42907;DHT22;28552;51.146;6.576;2022-12-18T08:33:42;-4.40;99.90
42907;DHT22;28552;51.146;6.576;2022-12-18T08:36:43;-4.30;99.90
42907;DHT22;28552;51.146;6.576;2022-12-18T08:39:44;-4.30;99.90
42907;DHT22;28552;51.146;6.576;2022-12-18T08:42:44;-4.20;99.90
42907;DHT22;28552;51.146;6.576;2022-12-18T08:46:00;-4.10;99.90
42907;DHT22;28552;51.146;6.576;2022-12-18T08:49:00;-4.10;99.90
42907;DHT22;28552;51.146;6.576;2022-12-18T08:52:01;-4.00;99.90
42907;DHT22;28552;51.146;6.576;2022-12-18T08:55:03;-3.90;99.90
42907;DHT22;28552;51.146;6.576;2022-12-18T08:58:04;-3.80;99.90
42907;DHT22;28552;51.146;6.576;2022-12-18T09:01:07;-3.70;99.90
42907;DHT22;28552;51.146;6.576;2022-12-18T09:04:09;-3.70;99.90
42907;DHT22;28552;51.146;6.576;2022-12-18T09:07:10;-3.60;99.90
42907;DHT22;28552;51.146;6.576;2022-12-18T09:10:10;-3.50;99.90
42907;DHT22;28552;51.146;6.576;2022-12-18T09:13:12;-3.50;99.90
42907;DHT22;28552;51.146;6.576;2022-12-18T09:16:12;-3.40;99.90
42907;DHT22;28552;51.146;6.576;2022-12-18T09:19:13;-3.40;99.90
42907;DHT22;28552;51.146;6.576;2022-12-18T09:22:13;-3.40;99.90
42907;DHT22;28552;51.146;6.576;2022-12-18T09:25:14;-3.20;99.90
42907;DHT22;28552;51.146;6.576;2022-12-18T09:28:17;-3.20;99.90
42907;DHT22;28552;51.146;6.576;2022-12-18T09:31:20;-3.10;99.90
42907;DHT22;28552;51.146;6.576;2022-12-18T09:34:21;-3.00;99.90
42907;DHT22;28552;51.146;6.576;2022-12-18T09:37:22;-2.90;99.90
42907;DHT22;28552;51.146;6.576;2022-12-18T09:40:35;-2.80;99.90
42907;DHT22;28552;51.146;6.576;2022-12-18T09:43:43;-2.80;99.90
42907;DHT22;28552;51.146;6.576;2022-12-18T09:46:51;-2.70;99.90
42907;DHT22;28552;51.146;6.576;2022-12-18T09:49:56;-2.60;99.90
42907;DHT22;28552;51.146;6.576;2022-12-18T09:53:02;-2.60;99.90
42907;DHT22;28552;51.146;6.576;2022-12-18T09:56:05;-2.50;99.90
42907;DHT22;28552;51.146;6.576;2022-12-18T09:59:05;-2.50;99.90
42907;DHT22;28552;51.146;6.576;2022-12-18T10:02:16;-2.40;99.90
42907;DHT22;28552;51.146;6.576;2022-12-18T10:05:24;-2.40;99.90
42907;DHT22;28552;51.146;6.576;2022-12-18T10:08:46;-2.30;99.90
42907;DHT22;28552;51.146;6.576;2022-12-18T10:15:08;-2.20;99.90
42907;DHT22;28552;51.146;6.576;2022-12-18T10:24:55;-2.00;99.90
42907;DHT22;28552;51.146;6.576;2022-12-18T10:28:07;-1.90;99.90
42907;DHT22;28552;51.146;6.576;2022-12-18T10:31:17;-1.90;99.90
42907;DHT22;28552;51.146;6.576;2022-12-18T10:34:18;-1.80;99.90
42907;DHT22;28552;51.146;6.576;2022-12-18T10:37:21;-1.70;99.90
42907;DHT22;28552;51.146;6.576;2022-12-18T10:40:22;-1.70;99.90
42907;DHT22;28552;51.146;6.576;2022-12-18T10:43:27;-1.70;99.90
42907;DHT22;28552;51.146;6.576;2022-12-18T10:46:29;-1.60;99.90
42907;DHT22;28552;51.146;6.576;2022-12-18T10:49:32;-1.60;99.90
42907;DHT22;28552;51.146;6.576;2022-12-18T10:52:33;-1.50;99.90
42907;DHT22;28552;51.146;6.576;2022-12-18T10:55:37;-1.50;99.90
42907;DHT22;28552;51.146;6.576;2022-12-18T10:58:39;-1.40;99.90
42907;DHT22;28552;51.146;6.576;2022-12-18T11:01:55;-1.30;99.90
42907;DHT22;28552;51.146;6.576;2022-12-18T11:04:56;-1.30;99.90
42907;DHT22;28552;51.146;6.576;2022-12-18T11:07:58;-1.20;99.90
42907;DHT22;28552;51.146;6.576;2022-12-18T11:11:00;-1.20;99.90
42907;DHT22;28552;51.146;6.576;2022-12-18T11:14:05;-1.10;99.90
42907;DHT22;28552;51.146;6.576;2022-12-18T11:17:19;-1.10;99.90
42907;DHT22;28552;51.146;6.576;2022-12-18T11:20:30;-1.00;99.90
42907;DHT22;28552;51.146;6.576;2022-12-18T11:23:32;-1.00;99.90
42907;DHT22;28552;51.146;6.576;2022-12-18T11:26:34;-0.90;99.90
42907;DHT22;28552;51.146;6.576;2022-12-18T11:29:38;-0.90;99.90
42907;DHT22;28552;51.146;6.576;2022-12-18T11:32:46;-0.90;99.90
42907;DHT22;28552;51.146;6.576;2022-12-18T11:35:52;-0.90;99.90
42907;DHT22;28552;51.146;6.576;2022-12-18T11:38:55;-0.90;99.90
42907;DHT22;28552;51.146;6.576;2022-12-18T11:42:01;-0.80;99.90
42907;DHT22;28552;51.146;6.576;2022-12-18T11:48:24;-0.70;99.90
42907;DHT22;28552;51.146;6.576;2022-12-18T11:51:33;-0.70;99.90
42907;DHT22;28552;51.146;6.576;2022-12-18T11:54:35;-0.60;99.90
42907;DHT22;28552;51.146;6.576;2022-12-18T11:57:54;-0.60;99.90
42907;DHT22;28552;51.146;6.576;2022-12-18T12:07:55;-0.50;99.90
42907;DHT22;28552;51.146;6.576;2022-12-18T12:11:08;-0.50;99.90
42907;DHT22;28552;51.146;6.576;2022-12-18T12:21:04;-0.40;99.90
42907;DHT22;28552;51.146;6.576;2022-12-18T12:24:34;-0.40;99.90
42907;DHT22;28552;51.146;6.576;2022-12-18T12:27:42;-0.40;99.90
42907;DHT22;28552;51.146;6.576;2022-12-18T12:30:58;-0.40;99.90
42907;DHT22;28552;51.146;6.576;2022-12-18T12:34:19;-0.40;99.90
42907;DHT22;28552;51.146;6.576;2022-12-18T12:40:57;-0.40;99.90
42907;DHT22;28552;51.146;6.576;2022-12-18T12:44:02;-0.40;99.90
42907;DHT22;28552;51.146;6.576;2022-12-18T12:47:19;-0.40;99.90
42907;DHT22;28552;51.146;6.576;2022-12-18T12:50:21;-0.40;99.90
42907;DHT22;28552;51.146;6.576;2022-12-18T12:53:27;-0.40;99.90
42907;DHT22;28552;51.146;6.576;2022-12-18T12:56:40;-0.40;99.90
42907;DHT22;28552;51.146;6.576;2022-12-18T13:00:00;-0.30;99.90
42907;DHT22;28552;51.146;6.576;2022-12-18T13:13:23;-0.30;99.90
42907;DHT22;28552;51.146;6.576;2022-12-18T13:16:25;-0.30;99.90
42907;DHT22;28552;51.146;6.576;2022-12-18T13:19:27;-0.40;99.90
42907;DHT22;28552;51.146;6.576;2022-12-18T13:22:33;-0.40;99.90
42907;DHT22;28552;51.146;6.576;2022-12-18T13:25:38;-0.40;99.90
42907;DHT22;28552;51.146;6.576;2022-12-18T13:28:53;-0.40;99.90
42907;DHT22;28552;51.146;6.576;2022-12-18T13:31:59;-0.40;99.90
42907;DHT22;28552;51.146;6.576;2022-12-18T13:35:37;-0.40;99.90
42907;DHT22;28552;51.146;6.576;2022-12-18T13:38:37;-0.50;99.90
42907;DHT22;28552;51.146;6.576;2022-12-18T13:41:38;-0.50;99.90
42907;DHT22;28552;51.146;6.576;2022-12-18T13:44:40;-0.50;99.90
42907;DHT22;28552;51.146;6.576;2022-12-18T13:47:43;-0.50;99.90
42907;DHT22;28552;51.146;6.576;2022-12-18T13:50:49;-0.60;99.90
42907;DHT22;28552;51.146;6.576;2022-12-18T13:53:55;-0.50;99.90
42907;DHT22;28552;51.146;6.576;2022-12-18T13:56:57;-0.60;99.90
42907;DHT22;28552;51.146;6.576;2022-12-18T13:59:59;-0.60;99.90
42907;DHT22;28552;51.146;6.576;2022-12-18T14:03:19;-0.60;99.90
42907;DHT22;28552;51.146;6.576;2022-12-18T14:06:20;-0.60;99.90
42907;DHT22;28552;51.146;6.576;2022-12-18T14:09:25;-0.60;99.90
42907;DHT22;28552;51.146;6.576;2022-12-18T14:12:29;-0.70;99.90
42907;DHT22;28552;51.146;6.576;2022-12-18T14:15:48;-0.60;99.90
42907;DHT22;28552;51.146;6.576;2022-12-18T14:18:53;-0.70;99.90
42907;DHT22;28552;51.146;6.576;2022-12-18T14:21:55;-0.70;99.90
42907;DHT22;28552;51.146;6.576;2022-12-18T14:28:14;-0.70;99.90
42907;DHT22;28552;51.146;6.576;2022-12-18T14:31:19;-0.70;99.90
42907;DHT22;28552;51.146;6.576;2022-12-18T14:34:26;-0.70;99.90
42907;DHT22;28552;51.146;6.576;2022-12-18T14:37:27;-0.80;99.90
42907;DHT22;28552;51.146;6.576;2022-12-18T14:40:28;-0.80;99.90
42907;DHT22;28552;51.146;6.576;2022-12-18T14:43:31;-0.80;99.90
42907;DHT22;28552;51.146;6.576;2022-12-18T14:49:34;-0.80;99.90
42907;DHT22;28552;51.146;6.576;2022-12-18T14:52:34;-0.80;99.90
42907;DHT22;28552;51.146;6.576;2022-12-18T14:55:35;-0.80;99.90
42907;DHT22;28552;51.146;6.576;2022-12-18T14:58:36;-0.90;99.90
42907;DHT22;28552;51.146;6.576;2022-12-18T15:01:39;-0.80;99.90
42907;DHT22;28552;51.146;6.576;2022-12-18T15:04:44;-0.90;99.90
42907;DHT22;28552;51.146;6.576;2022-12-18T15:07:49;-0.90;99.90
42907;DHT22;28552;51.146;6.576;2022-12-18T15:10:50;-0.90;99.90
42907;DHT22;28552;51.146;6.576;2022-12-18T15:13:50;-0.90;99.90
42907;DHT22;28552;51.146;6.576;2022-12-18T15:16:53;-0.90;99.90
42907;DHT22;28552;51.146;6.576;2022-12-18T15:20:00;-0.90;99.90
42907;DHT22;28552;51.146;6.576;2022-12-18T15:23:01;-0.90;99.90
42907;DHT22;28552;51.146;6.576;2022-12-18T15:26:04;-0.90;99.90
42907;DHT22;28552;51.146;6.576;2022-12-18T15:29:05;-0.90;99.90
42907;DHT22;28552;51.146;6.576;2022-12-18T15:32:19;-0.90;99.90
42907;DHT22;28552;51.146;6.576;2022-12-18T15:35:24;-0.90;99.90
42907;DHT22;28552;51.146;6.576;2022-12-18T15:38:25;-1.00;99.90
42907;DHT22;28552;51.146;6.576;2022-12-18T15:41:26;-1.00;99.90
42907;DHT22;28552;51.146;6.576;2022-12-18T15:44:27;-1.00;99.90
42907;DHT22;28552;51.146;6.576;2022-12-18T15:47:28;-1.00;99.90
42907;DHT22;28552;51.146;6.576;2022-12-18T15:50:28;-1.00;99.90
42907;DHT22;28552;51.146;6.576;2022-12-18T15:53:31;-1.00;99.90
42907;DHT22;28552;51.146;6.576;2022-12-18T15:56:32;-1.10;99.90
42907;DHT22;28552;51.146;6.576;2022-12-18T15:59:48;-1.00;99.90
42907;DHT22;28552;51.146;6.576;2022-12-18T16:02:48;-1.10;99.90
42907;DHT22;28552;51.146;6.576;2022-12-18T16:05:49;-1.10;99.90
42907;DHT22;28552;51.146;6.576;2022-12-18T16:08:49;-1.10;99.90
42907;DHT22;28552;51.146;6.576;2022-12-18T16:11:50;-1.10;99.90
42907;DHT22;28552;51.146;6.576;2022-12-18T16:14:51;-1.10;99.90
42907;DHT22;28552;51.146;6.576;2022-12-18T16:17:51;-1.10;99.90
42907;DHT22;28552;51.146;6.576;2022-12-18T16:20:52;-1.10;99.90
42907;DHT22;28552;51.146;6.576;2022-12-18T16:23:53;-1.10;99.90
42907;DHT22;28552;51.146;6.576;2022-12-18T16:26:55;-1.10;99.90
42907;DHT22;28552;51.146;6.576;2022-12-18T16:29:55;-1.10;99.90
42907;DHT22;28552;51.146;6.576;2022-12-18T16:32:57;-1.10;99.90
42907;DHT22;28552;51.146;6.576;2022-12-18T16:35:58;-1.10;99.90
42907;DHT22;28552;51.146;6.576;2022-12-18T16:38:58;-1.10;99.90
42907;DHT22;28552;51.146;6.576;2022-12-18T16:41:59;-1.10;99.90
42907;DHT22;28552;51.146;6.576;2022-12-18T16:45:00;-1.10;99.90
42907;DHT22;28552;51.146;6.576;2022-12-18T16:48:00;-1.10;99.90
42907;DHT22;28552;51.146;6.576;2022-12-18T16:51:03;-1.10;99.90
42907;DHT22;28552;51.146;6.576;2022-12-18T16:54:04;-1.10;99.90
42907;DHT22;28552;51.146;6.576;2022-12-18T16:57:04;-1.00;99.90
42907;DHT22;28552;51.146;6.576;2022-12-18T17:00:05;-1.00;99.90
42907;DHT22;28552;51.146;6.576;2022-12-18T17:03:06;-1.10;99.90
42907;DHT22;28552;51.146;6.576;2022-12-18T17:06:07;-1.10;99.90
42907;DHT22;28552;51.146;6.576;2022-12-18T17:09:11;-1.10;99.90
42907;DHT22;28552;51.146;6.576;2022-12-18T17:12:13;-1.10;99.90
42907;DHT22;28552;51.146;6.576;2022-12-18T17:15:14;-1.10;99.90
42907;DHT22;28552;51.146;6.576;2022-12-18T17:18:14;-1.10;99.90
42907;DHT22;28552;51.146;6.576;2022-12-18T17:21:15;-1.10;99.90
42907;DHT22;28552;51.146;6.576;2022-12-18T17:24:16;-1.10;99.90
42907;DHT22;28552;51.146;6.576;2022-12-18T17:27:17;-1.10;99.90
42907;DHT22;28552;51.146;6.576;2022-12-18T17:30:18;-1.10;99.90
42907;DHT22;28552;51.146;6.576;2022-12-18T17:33:19;-1.10;99.90
42907;DHT22;28552;51.146;6.576;2022-12-18T17:36:20;-1.10;99.90
42907;DHT22;28552;51.146;6.576;2022-12-18T17:39:21;-1.10;99.90
42907;DHT22;28552;51.146;6.576;2022-12-18T17:42:22;-1.20;99.90
42907;DHT22;28552;51.146;6.576;2022-12-18T17:45:23;-1.10;99.90
42907;DHT22;28552;51.146;6.576;2022-12-18T17:48:23;-1.10;99.90
42907;DHT22;28552;51.146;6.576;2022-12-18T17:51:25;-1.20;99.90
42907;DHT22;28552;51.146;6.576;2022-12-18T17:54:26;-1.20;99.90
42907;DHT22;28552;51.146;6.576;2022-12-18T17:57:26;-1.10;99.90
42907;DHT22;28552;51.146;6.576;2022-12-18T18:00:27;-1.20;99.90
42907;DHT22;28552;51.146;6.576;2022-12-18T18:03:28;-1.20;99.90
42907;DHT22;28552;51.146;6.576;2022-12-18T18:06:30;-1.20;99.90
42907;DHT22;28552;51.146;6.576;2022-12-18T18:09:30;-1.20;99.90
42907;DHT22;28552;51.146;6.576;2022-12-18T18:12:31;-1.20;99.90
42907;DHT22;28552;51.146;6.576;2022-12-18T18:15:55;-1.10;99.90
42907;DHT22;28552;51.146;6.576;2022-12-18T18:18:58;-1.20;99.90
42907;DHT22;28552;51.146;6.576;2022-12-18T18:21:59;-1.20;99.90
42907;DHT22;28552;51.146;6.576;2022-12-18T18:25:00;-1.20;99.90
42907;DHT22;28552;51.146;6.576;2022-12-18T18:28:03;-1.20;99.90
42907;DHT22;28552;51.146;6.576;2022-12-18T18:31:05;-1.20;99.90
42907;DHT22;28552;51.146;6.576;2022-12-18T18:34:06;-1.20;99.90
42907;DHT22;28552;51.146;6.576;2022-12-18T18:37:08;-1.20;99.90
42907;DHT22;28552;51.146;6.576;2022-12-18T18:40:09;-1.20;99.90
42907;DHT22;28552;51.146;6.576;2022-12-18T18:43:09;-1.20;99.90
42907;DHT22;28552;51.146;6.576;2022-12-18T18:46:11;-1.20;99.90
42907;DHT22;28552;51.146;6.576;2022-12-18T18:49:13;-1.20;99.90
42907;DHT22;28552;51.146;6.576;2022-12-18T18:52:14;-1.20;99.90
42907;DHT22;28552;51.146;6.576;2022-12-18T18:55:14;-1.20;99.90
42907;DHT22;28552;51.146;6.576;2022-12-18T18:58:15;-1.20;99.90
42907;DHT22;28552;51.146;6.576;2022-12-18T19:01:17;-1.20;99.90
42907;DHT22;28552;51.146;6.576;2022-12-18T19:04:18;-1.20;99.90
42907;DHT22;28552;51.146;6.576;2022-12-18T19:07:19;-1.20;99.90
42907;DHT22;28552;51.146;6.576;2022-12-18T19:10:19;-1.20;99.90
42907;DHT22;28552;51.146;6.576;2022-12-18T19:13:21;-1.20;99.90
42907;DHT22;28552;51.146;6.576;2022-12-18T19:16:25;-1.20;99.90
42907;DHT22;28552;51.146;6.576;2022-12-18T19:19:26;-1.20;99.90
42907;DHT22;28552;51.146;6.576;2022-12-18T19:22:27;-1.20;99.90
42907;DHT22;28552;51.146;6.576;2022-12-18T19:25:28;-1.20;99.90
42907;DHT22;28552;51.146;6.576;2022-12-18T19:28:33;-1.20;99.90
42907;DHT22;28552;51.146;6.576;2022-12-18T19:31:35;-1.10;99.90
42907;DHT22;28552;51.146;6.576;2022-12-18T19:34:35;-1.10;99.90
42907;DHT22;28552;51.146;6.576;2022-12-18T19:37:36;-1.10;99.90
42907;DHT22;28552;51.146;6.576;2022-12-18T19:40:40;-1.10;99.90
42907;DHT22;28552;51.146;6.576;2022-12-18T19:43:40;-1.10;99.90
42907;DHT22;28552;51.146;6.576;2022-12-18T19:46:41;-1.10;99.90
42907;DHT22;28552;51.146;6.576;2022-12-18T19:49:42;-1.00;99.90
42907;DHT22;28552;51.146;6.576;2022-12-18T19:52:43;-1.00;99.90
42907;DHT22;28552;51.146;6.576;2022-12-18T19:55:43;-1.00;99.90
42907;DHT22;28552;51.146;6.576;2022-12-18T19:58:44;-0.90;99.90
42907;DHT22;28552;51.146;6.576;2022-12-18T20:01:45;-0.90;99.90
42907;DHT22;28552;51.146;6.576;2022-12-18T20:04:45;-0.90;99.90
42907;DHT22;28552;51.146;6.576;2022-12-18T20:07:46;-0.90;99.90
42907;DHT22;28552;51.146;6.576;2022-12-18T20:10:46;-0.90;99.90
42907;DHT22;28552;51.146;6.576;2022-12-18T20:13:48;-0.80;99.90
42907;DHT22;28552;51.146;6.576;2022-12-18T20:16:50;-0.80;99.90